createdAt,value
2019-03-06T00:01:44.943Z,60.49
2019-03-06T00:04:15.388Z,60.07
2019-03-06T00:06:45.864Z,60.84
2019-03-06T00:09:16.357Z,61.28
2019-03-06T00:11:46.806Z,61.83
2019-03-06T00:14:17.407Z,63.15
2019-03-06T00:16:47.864Z,62.67
2019-03-06T00:19:18.474Z,63.66
2019-03-06T00:21:48.966Z,64.07
2019-03-06T00:24:19.416Z,64.35
2019-03-06T00:26:49.906Z,64.69
2019-03-06T00:29:20.525Z,64.57
2019-03-06T00:31:51.011Z,64.58
2019-03-06T00:34:21.471Z,64.30
2019-03-06T00:36:51.975Z,64.56
2019-03-06T00:39:22.517Z,65.16
2019-03-06T00:41:54.337Z,66.50
2019-03-06T00:44:24.797Z,66.15
2019-03-06T00:46:55.295Z,66.76
2019-03-06T00:49:25.752Z,67.25
2019-03-06T00:51:56.424Z,66.51
2019-03-06T00:54:26.884Z,66.49
2019-03-06T00:56:57.411Z,66.74
2019-03-06T00:59:27.844Z,66.49
2019-03-06T01:01:58.292Z,66.23
2019-03-06T01:04:28.782Z,66.13
2019-03-06T01:06:59.285Z,65.67
2019-03-06T01:09:29.732Z,65.56
2019-03-06T01:12:00.229Z,65.81
2019-03-06T01:14:30.967Z,67.14
2019-03-06T01:17:01.457Z,68.40
2019-03-06T01:19:32.011Z,69.08
2019-03-06T01:22:02.469Z,69.40
2019-03-06T01:24:33.112Z,69.68
2019-03-06T01:27:03.621Z,70.00
2019-03-06T01:29:34.077Z,70.53
2019-03-06T01:32:04.683Z,70.63
2019-03-06T01:34:52.503Z,70.58
2019-03-06T01:37:34.128Z,70.69
2019-03-06T01:40:23.772Z,70.46
2019-03-06T01:42:58.959Z,69.76
2019-03-06T01:45:29.457Z,69.80
2019-03-06T01:47:59.912Z,69.32
2019-03-06T01:50:30.704Z,69.78
2019-03-06T01:53:01.170Z,69.42
2019-03-06T01:55:31.740Z,70.61
2019-03-06T01:58:02.267Z,69.87
2019-03-06T02:00:32.803Z,69.54
2019-03-06T02:03:03.258Z,70.04
2019-03-06T02:05:33.853Z,69.56
2019-03-06T02:08:04.516Z,69.75
2019-03-06T02:10:35.118Z,69.36
2019-03-06T02:13:07.400Z,69.72
2019-03-06T02:15:37.903Z,69.72
2019-03-06T02:18:08.409Z,70.21
2019-03-06T02:20:38.926Z,70.33
2019-03-06T02:23:09.440Z,70.23
2019-03-06T02:25:39.907Z,70.71
2019-03-06T02:28:10.405Z,70.62
2019-03-06T02:30:40.984Z,70.37
2019-03-06T02:33:11.599Z,70.84
2019-03-06T02:35:42.251Z,70.67
2019-03-06T02:38:12.774Z,70.69
2019-03-06T02:40:43.254Z,70.36
2019-03-06T02:43:13.726Z,70.16
2019-03-06T02:45:44.270Z,69.72
2019-03-06T02:48:14.799Z,69.65
2019-03-06T02:50:45.294Z,69.61
2019-03-06T02:53:15.757Z,69.19
2019-03-06T02:55:46.267Z,69.07
2019-03-06T02:58:26.414Z,68.60
2019-03-06T03:01:14.200Z,68.24
2019-03-06T03:04:04.141Z,67.80
2019-03-06T03:06:38.554Z,68.09
2019-03-06T03:09:19.708Z,67.92
2019-03-06T03:11:50.168Z,67.40
2019-03-06T03:14:20.658Z,67.51
2019-03-06T03:16:51.253Z,66.97
2019-03-06T03:19:21.770Z,66.58
2019-03-06T03:21:52.284Z,66.24
2019-03-06T03:24:23.026Z,66.00
2019-03-06T03:26:53.623Z,65.88
2019-03-06T03:29:24.095Z,66.15
2019-03-06T03:31:54.585Z,65.57
2019-03-06T03:34:25.113Z,65.45
2019-03-06T03:36:55.663Z,65.45
2019-03-06T03:39:26.264Z,65.64
2019-03-06T03:41:56.772Z,65.59
2019-03-06T03:44:27.270Z,65.17
2019-03-06T03:46:57.771Z,66.27
2019-03-06T03:49:28.230Z,67.07
2019-03-06T03:51:58.728Z,67.00
2019-03-06T03:54:29.203Z,66.71
2019-03-06T03:56:59.699Z,66.44
2019-03-06T03:59:30.629Z,66.10
2019-03-06T04:02:01.257Z,65.87
2019-03-06T04:04:31.872Z,65.88
2019-03-06T04:07:02.451Z,65.68
2019-03-06T04:09:32.923Z,65.67
2019-03-06T04:12:03.465Z,66.03
2019-03-06T04:14:33.940Z,66.45
2019-03-06T04:17:04.489Z,66.98
2019-03-06T04:19:34.991Z,67.10
2019-03-06T04:22:05.493Z,66.64
2019-03-06T04:24:35.998Z,66.69
2019-03-06T04:27:06.507Z,66.45
2019-03-06T04:29:36.985Z,66.55
2019-03-06T04:32:07.482Z,66.55
2019-03-06T04:34:38.215Z,66.56
2019-03-06T04:37:08.713Z,66.70
2019-03-06T04:39:39.214Z,66.44
2019-03-06T04:42:09.737Z,66.01
2019-03-06T04:44:40.209Z,66.53
2019-03-06T04:47:10.716Z,66.55
2019-03-06T04:49:41.196Z,68.60
2019-03-06T04:52:11.671Z,69.15
2019-03-06T04:54:42.183Z,68.45
2019-03-06T04:57:12.644Z,68.37
2019-03-06T04:59:43.141Z,68.50
2019-03-06T05:02:13.638Z,68.34
2019-03-06T05:04:44.102Z,68.90
2019-03-06T05:07:14.623Z,68.71
2019-03-06T05:09:45.088Z,68.86
2019-03-06T05:12:15.557Z,68.89
2019-03-06T05:14:46.037Z,68.66
2019-03-06T05:17:34.022Z,68.75
2019-03-06T05:20:04.808Z,68.90
2019-03-06T05:22:35.367Z,69.00
2019-03-06T05:25:06.043Z,69.16
2019-03-06T05:27:36.502Z,69.36
2019-03-06T05:30:07.778Z,69.68
2019-03-06T05:32:39.029Z,69.44
2019-03-06T05:35:48.630Z,69.11
2019-03-06T05:38:41.849Z,69.17
2019-03-06T05:41:12.343Z,69.07
2019-03-06T05:43:42.863Z,68.60
2019-03-06T05:46:13.340Z,68.65
2019-03-06T05:48:43.945Z,68.53
2019-03-06T05:51:14.454Z,68.07
2019-03-06T05:53:44.933Z,67.77
2019-03-06T05:56:15.392Z,67.06
2019-03-06T05:58:45.953Z,66.41
2019-03-06T06:01:16.472Z,65.87
2019-03-06T06:03:46.964Z,65.72
2019-03-06T06:06:17.482Z,63.95
2019-03-06T06:08:48.019Z,63.81
2019-03-06T06:11:18.492Z,63.18
2019-03-06T06:13:48.998Z,62.63
2019-03-06T06:16:19.517Z,62.93
2019-03-06T06:18:50.307Z,61.91
2019-03-06T06:21:42.698Z,62.33
2019-03-06T06:24:16.088Z,61.11
2019-03-06T06:26:46.600Z,60.97
2019-03-06T06:29:17.090Z,61.24
2019-03-06T06:31:47.588Z,60.85
2019-03-06T06:34:18.405Z,60.24
2019-03-06T06:36:48.923Z,59.64
2019-03-06T06:39:19.448Z,59.49
2019-03-06T06:41:49.997Z,59.61
2019-03-06T06:44:20.569Z,59.74
2019-03-06T06:46:51.073Z,59.67
2019-03-06T06:49:21.629Z,59.22
2019-03-06T06:52:26.260Z,58.72
2019-03-06T06:55:28.052Z,56.17
2019-03-06T06:58:38.666Z,55.90
2019-03-06T07:01:43.664Z,55.92
2019-03-06T07:04:53.902Z,55.69
2019-03-06T07:07:58.429Z,56.33
2019-03-06T07:10:42.114Z,55.64
2019-03-06T07:13:40.721Z,55.85
2019-03-06T07:16:45.105Z,55.70
2019-03-06T07:19:34.676Z,56.05
2019-03-06T07:22:22.885Z,55.72
2019-03-06T07:24:58.944Z,56.09
2019-03-06T07:27:54.247Z,56.31
2019-03-06T07:30:33.890Z,55.60
2019-03-06T07:33:29.495Z,55.01
2019-03-06T07:36:18.851Z,55.55
2019-03-06T07:38:58.739Z,54.62
2019-03-06T07:41:40.709Z,55.14
2019-03-06T07:44:33.074Z,55.67
2019-03-06T07:47:11.224Z,54.52
2019-03-06T07:49:54.518Z,53.21
2019-03-06T07:52:59.123Z,52.39
2019-03-06T07:55:45.997Z,52.61
2019-03-06T07:58:52.943Z,52.08
2019-03-06T08:01:25.344Z,52.07
2019-03-06T08:04:16.800Z,51.39
2019-03-06T08:06:53.229Z,50.25
2019-03-06T08:09:24.010Z,49.89
2019-03-06T08:12:19.498Z,49.31
2019-03-06T08:15:14.685Z,49.51
2019-03-06T08:17:54.358Z,49.79
2019-03-06T08:20:52.577Z,50.65
2019-03-06T08:23:38.556Z,51.86
2019-03-06T08:26:09.259Z,50.74
2019-03-06T08:28:39.817Z,51.72
2019-03-06T08:31:19.204Z,51.39
2019-03-06T08:33:49.682Z,50.82
2019-03-06T08:36:20.224Z,50.24
2019-03-06T08:38:51.216Z,50.23
2019-03-06T08:41:21.908Z,49.99
2019-03-06T08:43:52.361Z,50.19
2019-03-06T08:46:41.710Z,49.76
2019-03-06T08:49:39.990Z,49.79
2019-03-06T08:52:28.279Z,50.28
2019-03-06T08:55:24.050Z,50.32
2019-03-06T08:58:04.709Z,50.12
2019-03-06T09:00:49.592Z,50.09
2019-03-06T09:03:46.958Z,50.08
2019-03-06T09:06:39.313Z,50.15
2019-03-06T09:09:27.508Z,50.01
2019-03-06T09:12:19.831Z,49.76
2019-03-06T09:15:06.789Z,49.45
2019-03-06T09:17:46.418Z,48.55
2019-03-06T09:20:44.623Z,48.19
2019-03-06T09:23:42.711Z,47.89
2019-03-06T09:26:38.203Z,48.07
2019-03-06T09:29:30.383Z,48.02
2019-03-06T09:32:28.987Z,47.75
2019-03-06T09:35:10.464Z,47.74
2019-03-06T09:38:10.986Z,48.09
2019-03-06T09:40:54.964Z,47.29
2019-03-06T09:43:48.664Z,47.03
2019-03-06T09:46:32.001Z,47.23
2019-03-06T09:49:17.293Z,47.34
2019-03-06T09:52:05.205Z,47.21
2019-03-06T09:54:47.368Z,46.31
2019-03-06T09:57:35.234Z,46.91
2019-03-06T10:00:17.631Z,46.90
2019-03-06T10:02:57.109Z,47.09
2019-03-06T10:05:48.761Z,46.49
2019-03-06T10:08:37.033Z,46.64
2019-03-06T10:11:29.454Z,45.96
2019-03-06T10:14:23.117Z,45.90
2019-03-06T10:17:18.402Z,45.44
2019-03-06T10:19:55.342Z,44.93
2019-03-06T10:22:25.959Z,45.11
2019-03-06T10:24:56.676Z,44.18
2019-03-06T10:27:27.130Z,43.22
2019-03-06T10:29:57.627Z,43.37
2019-03-06T10:32:28.213Z,43.58
2019-03-06T10:34:58.716Z,42.94
2019-03-06T10:37:29.176Z,42.77
2019-03-06T10:39:59.702Z,43.38
2019-03-06T10:42:30.201Z,42.26
2019-03-06T10:45:00.716Z,42.25
2019-03-06T10:47:31.197Z,42.83
2019-03-06T10:50:01.712Z,42.42
2019-03-06T10:52:32.270Z,41.61
2019-03-06T10:55:02.782Z,41.53
2019-03-06T10:57:33.385Z,41.44
2019-03-06T11:00:04.093Z,41.41
2019-03-06T11:02:34.703Z,42.01
2019-03-06T11:05:14.616Z,41.64
2019-03-06T11:07:45.405Z,41.81
2019-03-06T11:10:23.414Z,42.01
2019-03-06T11:12:48.558Z,41.55
2019-03-06T11:15:20.202Z,41.78
2019-03-06T11:17:51.204Z,42.33
2019-03-06T11:20:24.817Z,41.92
2019-03-06T11:22:56.316Z,42.12
2019-03-06T11:25:27.543Z,41.42
2019-03-06T11:27:58.458Z,41.69
2019-03-06T11:30:35.254Z,41.33
2019-03-06T11:33:08.566Z,42.05
2019-03-06T11:35:39.297Z,41.77
2019-03-06T11:38:10.395Z,41.39
2019-03-06T11:40:41.063Z,41.97
2019-03-06T11:43:12.081Z,40.85
2019-03-06T11:45:43.296Z,40.90
2019-03-06T11:48:14.597Z,40.99
2019-03-06T11:50:45.366Z,41.65
2019-03-06T11:53:15.988Z,41.03
2019-03-06T11:55:46.701Z,41.13
2019-03-06T11:58:18.767Z,40.93
2019-03-06T12:00:49.647Z,41.29
2019-03-06T12:03:21.906Z,41.62
2019-03-06T12:05:52.775Z,41.51
2019-03-06T12:08:23.354Z,41.49
2019-03-06T12:10:54.061Z,41.17
2019-03-06T12:13:24.592Z,41.65
2019-03-06T12:15:55.298Z,40.96
2019-03-06T12:18:26.315Z,39.96
2019-03-06T12:20:56.978Z,40.06
2019-03-06T12:23:27.598Z,40.07
2019-03-06T12:25:58.123Z,39.92
2019-03-06T12:28:28.576Z,40.25
2019-03-06T12:30:59.703Z,40.01
2019-03-06T12:33:30.304Z,39.71
2019-03-06T12:36:00.776Z,39.50
2019-03-06T12:38:31.388Z,39.79
2019-03-06T12:41:02.018Z,39.07
2019-03-06T12:43:32.875Z,39.40
2019-03-06T12:46:34.404Z,38.40
2019-03-06T12:49:09.570Z,37.13
2019-03-06T12:51:40.189Z,36.69
2019-03-06T12:54:10.780Z,36.21
2019-03-06T12:56:41.247Z,36.84
2019-03-06T12:59:11.925Z,37.56
2019-03-06T13:01:42.527Z,36.60
2019-03-06T13:04:13.021Z,35.03
2019-03-06T13:06:43.623Z,34.64
2019-03-06T13:09:18.505Z,36.21
2019-03-06T13:11:49.011Z,36.52
2019-03-06T13:14:19.634Z,34.50
2019-03-06T13:16:50.420Z,31.53
2019-03-06T13:19:21.034Z,31.29
2019-03-06T13:21:51.645Z,29.80
2019-03-06T13:24:22.190Z,27.13
2019-03-06T13:26:53.661Z,26.99
2019-03-06T13:29:25.789Z,27.29
2019-03-06T13:31:56.461Z,27.00
2019-03-06T13:34:30.129Z,26.97
2019-03-06T13:37:00.724Z,27.77
2019-03-06T13:39:31.260Z,26.29
2019-03-06T13:42:01.733Z,25.01
2019-03-06T13:44:32.303Z,24.65
2019-03-06T13:47:02.913Z,24.87
2019-03-06T13:49:33.407Z,25.83
2019-03-06T13:52:03.996Z,24.64
2019-03-06T13:54:34.793Z,24.64
2019-03-06T13:57:05.273Z,24.00
2019-03-06T13:59:35.795Z,22.91
2019-03-06T14:02:06.568Z,23.29
2019-03-06T14:04:37.129Z,24.08
2019-03-06T14:07:07.733Z,24.39
2019-03-06T14:09:38.243Z,24.42
2019-03-06T14:12:08.702Z,24.17
2019-03-06T14:14:39.245Z,24.90
2019-03-06T14:17:09.917Z,24.54
2019-03-06T14:19:40.610Z,24.54
2019-03-06T14:22:11.209Z,24.92
2019-03-06T14:24:41.676Z,24.55
2019-03-06T14:27:12.361Z,24.74
2019-03-06T14:29:42.928Z,24.91
2019-03-06T14:32:15.090Z,25.53
2019-03-06T14:34:45.879Z,25.54
2019-03-06T14:37:16.538Z,25.44
2019-03-06T14:39:47.062Z,24.25
2019-03-06T14:42:17.751Z,24.80
2019-03-06T14:44:48.314Z,24.81
2019-03-06T14:47:19.584Z,25.71
2019-03-06T14:49:50.051Z,25.71
2019-03-06T14:52:20.628Z,25.95
2019-03-06T14:54:51.216Z,25.91
2019-03-06T14:57:21.717Z,24.06
2019-03-06T14:59:52.475Z,23.66
2019-03-06T15:02:22.981Z,24.57
2019-03-06T15:04:53.544Z,24.83
2019-03-06T15:07:24.011Z,24.68
2019-03-06T15:09:54.802Z,23.71
2019-03-06T15:12:25.404Z,22.16
2019-03-06T15:14:55.883Z,22.26
2019-03-06T15:17:26.819Z,21.72
2019-03-06T15:19:57.421Z,22.36
2019-03-06T15:22:27.976Z,22.25
2019-03-06T15:24:58.512Z,22.85
2019-03-06T15:27:29.110Z,22.83
2019-03-06T15:29:59.643Z,23.19
2019-03-06T15:32:30.241Z,23.85
2019-03-06T15:35:00.837Z,23.14
2019-03-06T15:37:31.538Z,23.35
2019-03-06T15:40:02.160Z,23.82
2019-03-06T15:42:32.902Z,22.88
2019-03-06T15:45:03.525Z,21.70
2019-03-06T15:47:34.108Z,22.20
2019-03-06T15:50:05.129Z,22.10
2019-03-06T15:52:35.730Z,22.38
2019-03-06T15:55:07.084Z,22.38
2019-03-06T15:57:37.593Z,22.64
2019-03-06T16:00:17.383Z,22.97
2019-03-06T16:02:48.352Z,23.33
2019-03-06T16:05:19.697Z,23.94
2019-03-06T16:07:50.230Z,23.82
2019-03-06T16:10:20.822Z,24.56
2019-03-06T16:12:51.328Z,25.15
2019-03-06T16:15:22.268Z,25.21
2019-03-06T16:17:52.779Z,25.89
2019-03-06T16:20:23.568Z,26.05
2019-03-06T16:22:54.174Z,26.21
2019-03-06T16:25:25.292Z,26.46
2019-03-06T16:27:56.769Z,26.71
2019-03-06T16:30:28.289Z,26.68
2019-03-06T16:32:59.025Z,26.84
2019-03-06T16:35:29.678Z,27.37
2019-03-06T16:38:00.284Z,27.49
2019-03-06T16:40:31.344Z,27.92
2019-03-06T16:43:01.859Z,28.03
2019-03-06T16:45:32.415Z,28.18
2019-03-06T16:48:03.074Z,28.52
2019-03-06T16:50:33.688Z,28.79
2019-03-06T16:53:04.714Z,29.16
2019-03-06T16:55:35.400Z,29.69
2019-03-06T16:58:05.961Z,29.86
2019-03-06T17:00:37.084Z,30.61
2019-03-06T17:03:07.840Z,30.94
2019-03-06T17:05:38.980Z,31.06
2019-03-06T17:08:09.740Z,31.41
2019-03-06T17:10:40.244Z,31.86
2019-03-06T17:13:10.709Z,31.80
2019-03-06T17:15:41.275Z,31.92
2019-03-06T17:18:11.981Z,31.68
2019-03-06T17:20:42.549Z,31.23
2019-03-06T17:23:13.052Z,31.79
2019-03-06T17:25:43.626Z,31.88
2019-03-06T17:28:14.338Z,32.02
2019-03-06T17:30:44.948Z,32.07
2019-03-06T17:33:15.784Z,31.94
2019-03-06T17:35:46.408Z,32.33
2019-03-06T17:38:17.084Z,32.21
2019-03-06T17:40:47.813Z,32.18
2019-03-06T17:43:18.322Z,32.36
2019-03-06T17:45:48.933Z,32.46
2019-03-06T17:48:19.612Z,32.82
2019-03-06T17:50:50.186Z,32.67
2019-03-06T17:53:20.898Z,32.50
2019-03-06T17:55:51.453Z,32.46
2019-03-06T17:58:22.226Z,32.44
2019-03-06T18:00:56.440Z,32.75
2019-03-06T18:03:36.339Z,33.21
2019-03-06T18:06:06.840Z,33.38
2019-03-06T18:08:37.581Z,33.70
2019-03-06T18:11:08.193Z,33.47
2019-03-06T18:13:38.645Z,33.55
2019-03-06T18:16:09.141Z,33.38
2019-03-06T18:18:39.609Z,33.39
2019-03-06T18:21:10.118Z,33.51
2019-03-06T18:23:40.587Z,33.29
2019-03-06T18:26:11.192Z,33.21
2019-03-06T18:28:41.872Z,33.35
2019-03-06T18:31:12.473Z,34.32
2019-03-06T18:33:43.069Z,34.42
2019-03-06T18:36:13.711Z,33.90
2019-03-06T18:38:44.216Z,33.75
2019-03-06T18:41:14.686Z,33.32
2019-03-06T18:43:45.154Z,33.40
2019-03-06T18:46:15.643Z,34.23
2019-03-06T18:48:46.212Z,33.82
2019-03-06T18:51:16.816Z,34.29
2019-03-06T18:53:47.319Z,34.55
2019-03-06T18:56:17.862Z,35.01
2019-03-06T18:58:48.330Z,35.02
2019-03-06T19:01:18.834Z,35.15
2019-03-06T19:03:49.293Z,35.46
2019-03-06T19:06:20.891Z,35.37
2019-03-06T19:08:51.423Z,35.35
2019-03-06T19:11:22.013Z,35.42
2019-03-06T19:13:52.489Z,35.60
2019-03-06T19:16:23.143Z,35.80
2019-03-06T19:18:53.642Z,36.04
2019-03-06T19:21:24.208Z,36.25
2019-03-06T19:23:54.726Z,36.39
2019-03-06T19:26:25.333Z,36.50
2019-03-06T19:28:55.967Z,36.92
2019-03-06T19:31:26.470Z,36.99
2019-03-06T19:33:56.942Z,37.14
2019-03-06T19:36:27.565Z,37.77
2019-03-06T19:38:58.062Z,37.37
2019-03-06T19:41:28.661Z,37.95
2019-03-06T19:44:01.040Z,38.46
2019-03-06T19:46:31.371Z,38.62
2019-03-06T19:49:01.883Z,38.54
2019-03-06T19:51:32.464Z,38.89
2019-03-06T19:54:03.064Z,38.94
2019-03-06T19:56:33.838Z,38.82
2019-03-06T19:59:04.477Z,39.04
2019-03-06T20:01:34.946Z,39.24
2019-03-06T20:04:05.611Z,39.31
2019-03-06T20:06:36.306Z,39.38
2019-03-06T20:09:26.040Z,39.38
2019-03-06T20:11:57.199Z,39.45
2019-03-06T20:14:27.705Z,39.57
2019-03-06T20:16:58.359Z,39.68
2019-03-06T20:19:28.823Z,39.79
2019-03-06T20:21:59.336Z,39.80
2019-03-06T20:24:29.908Z,40.20
2019-03-06T20:27:00.518Z,40.58
2019-03-06T20:29:31.030Z,40.66
2019-03-06T20:32:01.540Z,40.74
2019-03-06T20:34:32.295Z,40.68
2019-03-06T20:37:02.797Z,40.73
2019-03-06T20:39:33.270Z,40.85
2019-03-06T20:42:03.785Z,41.18
2019-03-06T20:44:34.321Z,41.21
2019-03-06T20:47:04.888Z,41.22
2019-03-06T20:49:35.345Z,41.54
2019-03-06T20:52:05.970Z,42.08
2019-03-06T20:54:36.476Z,42.28
2019-03-06T20:57:06.988Z,42.24
2019-03-06T20:59:37.450Z,42.17
2019-03-06T21:02:08.053Z,42.27
2019-03-06T21:04:38.558Z,42.54
2019-03-06T21:07:09.054Z,42.57
2019-03-06T21:09:39.519Z,42.62
2019-03-06T21:12:09.983Z,42.76
2019-03-06T21:14:40.432Z,42.86
2019-03-06T21:17:10.990Z,42.97
2019-03-06T21:19:41.500Z,43.17
2019-03-06T21:22:11.982Z,43.27
2019-03-06T21:24:42.459Z,43.62
2019-03-06T21:27:12.920Z,44.07
2019-03-06T21:29:43.411Z,44.20
2019-03-06T21:32:13.914Z,44.30
2019-03-06T21:34:44.661Z,44.90
2019-03-06T21:37:15.165Z,45.06
2019-03-06T21:39:45.637Z,44.88
2019-03-06T21:42:16.091Z,45.06
2019-03-06T21:44:46.553Z,45.08
2019-03-06T21:47:17.053Z,45.17
2019-03-06T21:49:47.737Z,45.50
2019-03-06T21:52:18.195Z,45.46
2019-03-06T21:54:48.696Z,45.55
2019-03-06T21:57:19.158Z,45.51
2019-03-06T21:59:49.670Z,45.30
2019-03-06T22:02:20.133Z,45.69
2019-03-06T22:04:50.643Z,45.55
2019-03-06T22:07:21.121Z,45.63
2019-03-06T22:09:51.628Z,45.86
2019-03-06T22:12:22.106Z,45.66
2019-03-06T22:14:52.664Z,45.56
2019-03-06T22:17:23.138Z,45.94
2019-03-06T22:19:53.607Z,45.96
2019-03-06T22:22:24.182Z,45.82
2019-03-06T22:24:54.643Z,45.92
2019-03-06T22:27:25.108Z,45.84
2019-03-06T22:29:55.787Z,45.69
2019-03-06T22:32:26.378Z,45.35
2019-03-06T22:34:56.837Z,45.25
2019-03-06T22:37:27.339Z,45.24
2019-03-06T22:39:57.803Z,44.90
2019-03-06T22:42:28.278Z,44.76
2019-03-06T22:44:58.805Z,44.96
2019-03-06T22:47:29.273Z,45.04
2019-03-06T22:49:59.739Z,45.33
2019-03-06T22:52:30.268Z,45.35
2019-03-06T22:55:00.776Z,45.29
2019-03-06T22:57:31.224Z,45.06
2019-03-06T23:00:01.730Z,44.93
2019-03-06T23:02:32.230Z,45.44
2019-03-06T23:05:03.202Z,45.92
2019-03-06T23:07:33.673Z,46.34
2019-03-06T23:10:04.221Z,46.79
2019-03-06T23:12:34.701Z,47.53
2019-03-06T23:15:05.269Z,48.40
2019-03-06T23:17:35.759Z,48.31
2019-03-06T23:20:06.955Z,48.20
2019-03-06T23:22:37.540Z,48.01
2019-03-06T23:25:08.213Z,47.65
2019-03-06T23:27:38.694Z,47.39
2019-03-06T23:30:10.627Z,47.25
2019-03-06T23:32:41.182Z,47.66
2019-03-06T23:35:11.748Z,47.84
2019-03-06T23:37:42.241Z,48.13
2019-03-06T23:40:13.008Z,48.46
2019-03-06T23:42:43.688Z,48.20
2019-03-06T23:45:14.359Z,48.22
2019-03-06T23:47:45.031Z,48.03
2019-03-06T23:50:15.731Z,48.90
2019-03-06T23:53:02.410Z,48.42
2019-03-06T23:55:33.096Z,48.70
2019-03-06T23:58:03.758Z,48.45
